Time;durP1;ratioP1;P1;durP2;ratioP2;P2;SDS_P1;SDS_P2;PMS_P1;PMS_P2;Temp;Humidity;BMP_temperature;BMP_pressure;BME280_temperature;BME280_humidity;BME280_pressure;Samples;Min_cycle;Max_cycle;Signal;HPM_P1;HPM_P2
2023/06/14 00:00:40;;;;;;;3.08;2.33;;;22.40;58.70;;;;;;4992057;28;20080;-67
2023/06/14 00:03:09;;;;;;;4.10;2.50;;;22.40;58.70;;;;;;4999747;28;20060;-68
2023/06/14 00:05:40;;;;;;;2.55;2.35;;;22.40;58.70;;;;;;4999502;28;20117;-68
2023/06/14 00:08:07;;;;;;;3.45;2.35;;;22.30;58.70;;;;;;4998327;28;20486;-68
2023/06/14 00:10:35;;;;;;;2.85;2.65;;;22.40;58.70;;;;;;4997855;28;20034;-66
2023/06/14 00:13:01;;;;;;;2.05;1.85;;;22.30;58.80;;;;;;4994575;28;20154;-66
2023/06/14 00:15:27;;;;;;;2.90;2.58;;;22.30;58.70;;;;;;4998995;28;20586;-68
2023/06/14 00:17:54;;;;;;;4.13;2.38;;;22.30;58.80;;;;;;4995827;28;20034;-67
2023/06/14 00:20:20;;;;;;;2.17;2.00;;;22.30;58.70;;;;;;4995314;28;20038;-68
2023/06/14 00:22:46;;;;;;;2.33;2.13;;;22.30;58.80;;;;;;4995710;28;20031;-68
2023/06/14 00:25:11;;;;;;;2.42;2.13;;;22.30;58.80;;;;;;5001313;28;20032;-68
2023/06/14 00:27:37;;;;;;;3.50;2.65;;;22.30;58.80;;;;;;4997259;28;20036;-68
2023/06/14 00:30:03;;;;;;;2.28;2.08;;;22.30;58.70;;;;;;4995019;28;20030;-68
2023/06/14 00:32:28;;;;;;;2.58;2.38;;;22.30;58.70;;;;;;4995511;28;20034;-72
2023/06/14 00:34:54;;;;;;;2.55;2.13;;;22.30;58.70;;;;;;4996855;28;20035;-68
2023/06/14 00:37:20;;;;;;;3.00;2.33;;;22.30;58.70;;;;;;4999858;28;20045;-68
2023/06/14 00:39:45;;;;;;;3.05;2.30;;;22.30;59.40;;;;;;4996987;28;20562;-67
2023/06/14 00:42:11;;;;;;;4.53;2.47;;;22.30;58.80;;;;;;4993490;28;20034;-67
2023/06/14 00:44:36;;;;;;;2.50;2.30;;;22.30;58.90;;;;;;5000717;28;20041;-67
2023/06/14 00:47:01;;;;;;;2.13;1.92;;;22.30;58.70;;;;;;5000201;28;20440;-68
2023/06/14 00:49:29;;;;;;;2.25;1.90;;;22.30;58.70;;;;;;4998241;28;20029;-65
2023/06/14 00:51:55;;;;;;;2.40;2.13;;;22.30;58.80;;;;;;4995364;28;20305;-67
2023/06/14 00:54:20;;;;;;;2.35;2.15;;;22.20;58.70;;;;;;4994369;28;20025;-68
2023/06/14 00:56:46;;;;;;;2.97;2.42;;;22.30;58.70;;;;;;4996461;28;20027;-68
2023/06/14 00:59:11;;;;;;;3.22;2.05;;;22.30;58.80;;;;;;4996458;28;20042;-68
2023/06/14 01:01:38;;;;;;;2.85;2.00;;;22.20;58.70;;;;;;4996622;28;20030;-67
2023/06/14 01:04:05;;;;;;;3.28;2.03;;;22.20;58.70;;;;;;4994607;28;20486;-68
2023/06/14 01:06:55;;;;;;;2.38;2.15;;;22.20;58.70;;;;;;4996966;28;20044;-68
2023/06/14 01:09:40;;;;;;;2.85;2.45;;;22.30;58.90;;;;;;4994184;28;20030;-67
2023/06/14 01:12:15;;;;;;;2.38;1.90;;;22.30;58.80;;;;;;4993062;28;20402;-68
2023/06/14 01:14:41;;;;;;;2.83;2.13;;;22.20;58.70;;;;;;4996759;28;20759;-68
2023/06/14 01:17:15;;;;;;;2.85;2.10;;;22.20;58.80;;;;;;5001206;28;20117;-63
2023/06/14 01:19:42;;;;;;;3.20;2.20;;;22.20;58.70;;;;;;4998784;28;20039;-67
2023/06/14 01:22:08;;;;;;;3.75;2.05;;;22.20;58.80;;;;;;5000665;28;20035;-67
2023/06/14 01:24:34;;;;;;;2.40;2.20;;;22.20;58.80;;;;;;4996186;28;20030;-67
2023/06/14 01:27:02;;;;;;;2.53;1.85;;;22.20;58.80;;;;;;4994558;28;20022;-68
2023/06/14 01:29:32;;;;;;;3.20;2.00;;;22.20;59.40;;;;;;4993489;28;20034;-64
2023/06/14 01:31:59;;;;;;;3.17;2.17;;;22.20;58.80;;;;;;4999137;28;20034;-67
2023/06/14 01:34:25;;;;;;;2.60;2.40;;;22.20;58.70;;;;;;4995890;28;20028;-65
2023/06/14 01:36:54;;;;;;;3.72;2.47;;;22.20;58.80;;;;;;4996887;28;20630;-67
2023/06/14 01:39:21;;;;;;;2.15;1.95;;;22.20;58.70;;;;;;4994232;28;20769;-69
2023/06/14 01:41:49;;;;;;;3.97;2.30;;;22.20;58.80;;;;;;4993173;28;20121;-67
2023/06/14 01:44:15;;;;;;;2.58;1.92;;;22.20;58.80;;;;;;4996551;28;20504;-66
2023/06/14 01:46:42;;;;;;;2.55;2.25;;;22.20;58.80;;;;;;4997859;28;20038;-65
2023/06/14 01:49:08;;;;;;;2.10;1.90;;;22.20;58.80;;;;;;4996496;28;20050;-65
2023/06/14 01:51:33;;;;;;;2.03;1.83;;;22.20;58.80;;;;;;4998378;28;20057;-68
2023/06/14 01:54:00;;;;;;;2.22;2.03;;;22.20;58.80;;;;;;4995795;28;20177;-68
2023/06/14 01:56:26;;;;;;;2.65;2.28;;;22.20;58.90;;;;;;4994431;28;20022;-65
2023/06/14 01:58:51;;;;;;;2.97;2.25;;;22.10;58.80;;;;;;4989946;28;20105;-65
2023/06/14 02:01:18;;;;;;;2.28;2.08;;;22.10;58.70;;;;;;4999865;28;20046;-67
2023/06/14 02:03:44;;;;;;;2.25;1.83;;;22.20;58.80;;;;;;4994803;28;20474;-68
2023/06/14 02:06:10;;;;;;;2.47;2.20;;;22.20;58.90;;;;;;4995736;28;20081;-66
2023/06/14 02:08:36;;;;;;;2.13;1.92;;;22.20;58.90;;;;;;4995287;28;20035;-68
2023/06/14 02:11:01;;;;;;;3.08;2.15;;;22.10;58.80;;;;;;4999135;28;20037;-67
2023/06/14 02:13:27;;;;;;;2.33;2.13;;;22.10;58.80;;;;;;5002713;28;20104;-67
2023/06/14 02:15:54;;;;;;;1.98;1.77;;;22.10;58.80;;;;;;4997866;28;20343;-68
2023/06/14 02:18:20;;;;;;;2.00;1.80;;;22.10;58.80;;;;;;4997968;28;20093;-68
2023/06/14 02:20:45;;;;;;;2.50;2.30;;;22.10;58.80;;;;;;4998220;28;20040;-68
2023/06/14 02:23:11;;;;;;;2.53;2.10;;;22.10;58.80;;;;;;4996175;28;20038;-67
2023/06/14 02:25:36;;;;;;;2.47;2.03;;;22.10;58.80;;;;;;4996024;28;20122;-66
2023/06/14 02:28:02;;;;;;;1.88;1.70;;;22.10;58.80;;;;;;4997087;28;20114;-68
2023/06/14 02:30:28;;;;;;;1.67;1.58;;;22.10;58.90;;;;;;4999385;28;20034;-65
2023/06/14 02:32:53;;;;;;;2.20;1.83;;;22.10;58.80;;;;;;4998111;28;20026;-68
2023/06/14 02:35:20;;;;;;;2.20;2.00;;;22.10;58.80;;;;;;4998838;28;20070;-67
2023/06/14 02:37:46;;;;;;;3.00;2.20;;;22.10;58.80;;;;;;5000784;28;20479;-67
2023/06/14 02:40:12;;;;;;;1.73;1.60;;;22.10;58.80;;;;;;4995206;28;20041;-67
2023/06/14 02:42:37;;;;;;;2.17;1.98;;;22.10;58.90;;;;;;5000899;28;20433;-67
2023/06/14 02:45:04;;;;;;;2.30;1.92;;;22.10;58.90;;;;;;4999990;28;20129;-68
2023/06/14 02:47:29;;;;;;;2.70;2.30;;;22.10;58.80;;;;;;5003116;28;20038;-67
2023/06/14 02:49:55;;;;;;;2.22;2.03;;;22.10;58.80;;;;;;4997487;28;20104;-66
2023/06/14 02:52:21;;;;;;;2.97;2.25;;;22.10;58.80;;;;;;4999459;28;20037;-68
2023/06/14 02:54:47;;;;;;;1.98;1.77;;;22.10;58.80;;;;;;4997834;28;20034;-67
2023/06/14 02:57:12;;;;;;;1.92;1.73;;;22.00;58.80;;;;;;5001487;28;20026;-67
2023/06/14 02:59:38;;;;;;;2.00;1.55;;;22.10;58.90;;;;;;4999495;28;20462;-67
2023/06/14 03:02:04;;;;;;;2.03;1.77;;;22.10;58.80;;;;;;4997261;28;20057;-68
2023/06/14 03:04:32;;;;;;;2.40;2.20;;;22.00;58.80;;;;;;4998761;28;20093;-68
2023/06/14 03:06:58;;;;;;;2.03;1.88;;;22.00;58.80;;;;;;5000296;28;20036;-65
2023/06/14 03:09:24;;;;;;;2.22;1.98;;;22.00;58.80;;;;;;4996532;28;20121;-67
2023/06/14 03:11:50;;;;;;;2.13;1.92;;;22.00;58.90;;;;;;5000057;28;20382;-67
2023/06/14 03:14:17;;;;;;;2.70;2.50;;;22.00;58.80;;;;;;5001204;28;20553;-68
2023/06/14 03:16:42;;;;;;;2.10;1.70;;;22.00;58.90;;;;;;4998632;28;20109;-67
2023/06/14 03:19:08;;;;;;;3.25;1.88;;;22.00;58.80;;;;;;4998910;28;20232;-67
2023/06/14 03:21:34;;;;;;;2.78;2.10;;;22.00;58.90;;;;;;4995757;28;20030;-67
2023/06/14 03:24:00;;;;;;;2.75;1.75;;;22.00;58.90;;;;;;4998292;28;20038;-67
2023/06/14 03:26:25;;;;;;;2.05;1.85;;;22.00;58.80;;;;;;4997676;28;20037;-67
2023/06/14 03:28:51;;;;;;;3.60;2.00;;;22.00;58.80;;;;;;4996750;28;20061;-68
2023/06/14 03:31:16;;;;;;;2.38;1.60;;;22.00;58.80;;;;;;4995633;28;20413;-67
2023/06/14 03:33:42;;;;;;;2.15;1.95;;;22.00;58.80;;;;;;5000080;28;20049;-67
2023/06/14 03:36:08;;;;;;;1.92;1.80;;;22.00;58.80;;;;;;4998401;28;20489;-68
2023/06/14 03:38:34;;;;;;;1.67;1.55;;;22.00;58.80;;;;;;4995844;28;20069;-68
2023/06/14 03:40:59;;;;;;;2.40;2.20;;;22.00;58.70;;;;;;4999991;28;20109;-66
2023/06/14 03:43:25;;;;;;;2.28;1.80;;;22.00;58.70;;;;;;5001867;28;20600;-66
2023/06/14 03:45:51;;;;;;;2.03;1.80;;;22.00;58.70;;;;;;4997457;28;20044;-66
2023/06/14 03:48:16;;;;;;;2.65;1.73;;;22.00;58.70;;;;;;4998895;28;20091;-66
2023/06/14 03:50:42;;;;;;;2.22;1.88;;;22.00;58.70;;;;;;5001611;28;20113;-68
2023/06/14 03:53:08;;;;;;;2.30;2.10;;;22.00;58.70;;;;;;4995451;28;20046;-68
2023/06/14 03:55:34;;;;;;;1.70;1.60;;;22.00;58.80;;;;;;4996067;28;20038;-66
2023/06/14 03:58:00;;;;;;;2.15;1.95;;;22.00;58.80;;;;;;4996790;28;20037;-68
2023/06/14 04:00:26;;;;;;;2.15;1.92;;;22.00;58.80;;;;;;4996532;28;20125;-68
2023/06/14 04:02:53;;;;;;;1.90;1.75;;;22.00;58.70;;;;;;4997397;28;20487;-66
2023/06/14 04:05:19;;;;;;;1.80;1.70;;;22.00;59.40;;;;;;4998760;28;20046;-67
2023/06/14 04:07:45;;;;;;;2.28;1.90;;;22.00;58.80;;;;;;4997002;28;20087;-68
2023/06/14 04:10:12;;;;;;;2.08;1.88;;;22.00;58.80;;;;;;4999319;28;20443;-68
2023/06/14 04:12:37;;;;;;;2.15;1.95;;;22.00;58.80;;;;;;4998753;28;20355;-67
2023/06/14 04:15:05;;;;;;;3.03;1.90;;;22.00;58.80;;;;;;4998668;28;20041;-68
2023/06/14 04:17:32;;;;;;;2.05;1.85;;;22.00;58.80;;;;;;4996671;28;20488;-68
2023/06/14 04:19:59;;;;;;;2.00;1.80;;;21.90;58.80;;;;;;4998435;28;20037;-68
2023/06/14 04:22:28;;;;;;;2.45;2.22;;;22.00;58.80;;;;;;5002035;28;20068;-68
2023/06/14 04:24:56;;;;;;;2.38;1.98;;;22.00;58.80;;;;;;4994350;28;20040;-67
2023/06/14 04:27:25;;;;;;;2.17;1.80;;;22.00;58.80;;;;;;4998027;28;20033;-67
2023/06/14 04:29:59;;;;;;;1.88;1.65;;;22.00;58.80;;;;;;4992905;28;20026;-68
2023/06/14 04:32:33;;;;;;;4.13;1.90;;;21.90;58.80;;;;;;4994842;28;20046;-67
2023/06/14 04:35:01;;;;;;;1.85;1.40;;;22.00;58.80;;;;;;4995338;28;20493;-68
2023/06/14 04:37:29;;;;;;;2.53;2.33;;;21.90;58.80;;;;;;4992731;28;20026;-64
2023/06/14 04:39:55;;;;;;;1.92;1.83;;;21.90;58.70;;;;;;4996990;28;20061;-68
2023/06/14 04:42:24;;;;;;;1.70;1.60;;;22.00;58.80;;;;;;4999280;28;20425;-67
2023/06/14 04:44:51;;;;;;;2.03;1.85;;;22.00;58.60;;;;;;5001146;28;20079;-68
2023/06/14 04:47:16;;;;;;;1.92;1.73;;;22.00;58.70;;;;;;4998315;28;20026;-67
2023/06/14 04:49:42;;;;;;;2.05;1.60;;;22.00;58.50;;;;;;4998723;28;20034;-67
2023/06/14 04:52:10;;;;;;;2.70;1.90;;;22.00;58.70;;;;;;4996865;28;20116;-68
2023/06/14 04:54:37;;;;;;;1.70;1.58;;;22.00;58.70;;;;;;4996567;28;20318;-67
2023/06/14 04:57:04;;;;;;;2.10;1.90;;;22.10;58.60;;;;;;4994710;28;20054;-68
2023/06/14 04:59:33;;;;;;;2.10;1.75;;;22.10;58.60;;;;;;4993579;28;20033;-67
2023/06/14 05:01:59;;;;;;;2.20;2.00;;;22.10;58.60;;;;;;4988341;28;20026;-67
2023/06/14 05:04:26;;;;;;;2.20;2.00;;;22.10;58.90;;;;;;4996672;28;20030;-66
2023/06/14 05:06:54;;;;;;;2.33;1.90;;;22.10;58.60;;;;;;4990322;28;20421;-68
2023/06/14 05:09:20;;;;;;;1.92;1.58;;;22.10;58.50;;;;;;4993607;28;20030;-67
2023/06/14 05:11:45;;;;;;;2.95;1.88;;;22.10;58.60;;;;;;4999445;28;20068;-68
2023/06/14 05:14:12;;;;;;;2.10;1.67;;;22.10;58.60;;;;;;4994288;28;20493;-67
2023/06/14 05:16:38;;;;;;;2.08;1.77;;;22.10;59.30;;;;;;4999428;28;20037;-66
2023/06/14 05:19:04;;;;;;;5.28;2.00;;;22.10;58.50;;;;;;4994561;28;20049;-67
2023/06/14 05:21:31;;;;;;;2.58;1.73;;;22.10;58.60;;;;;;4996026;28;20473;-67
2023/06/14 05:23:57;;;;;;;2.38;2.10;;;22.10;58.60;;;;;;4996726;28;20037;-67
2023/06/14 05:26:29;;;;;;;1.75;1.63;;;22.10;58.60;;;;;;4996100;28;20030;-68
2023/06/14 05:28:56;;;;;;;1.95;1.80;;;22.10;58.70;;;;;;4992058;28;20116;-68
2023/06/14 05:31:23;;;;;;;2.25;1.85;;;22.10;58.70;;;;;;4995266;28;20536;-67
2023/06/14 05:33:48;;;;;;;1.92;1.65;;;22.10;58.80;;;;;;4998636;28;20030;-68
2023/06/14 05:36:14;;;;;;;2.17;1.75;;;22.10;58.90;;;;;;4995456;28;20030;-66
2023/06/14 05:38:39;;;;;;;2.25;1.70;;;22.10;58.70;;;;;;4995513;28;20041;-68
2023/06/14 05:41:05;;;;;;;1.80;1.70;;;22.10;58.80;;;;;;4999692;28;20038;-66
2023/06/14 05:43:31;;;;;;;1.95;1.80;;;22.10;58.80;;;;;;4998663;28;20591;-68
2023/06/14 05:45:57;;;;;;;1.70;1.60;;;22.10;58.90;;;;;;5000558;28;20493;-68
2023/06/14 05:48:22;;;;;;;1.70;1.58;;;22.10;58.90;;;;;;5000524;28;20033;-67
2023/06/14 05:50:48;;;;;;;2.65;2.03;;;22.10;58.90;;;;;;5003174;28;20113;-67
2023/06/14 05:53:13;;;;;;;1.90;1.80;;;22.10;59.10;;;;;;5000463;28;20093;-67
2023/06/14 05:55:38;;;;;;;2.20;1.80;;;22.10;58.90;;;;;;4998384;28;20030;-68
2023/06/14 05:58:04;;;;;;;1.92;1.83;;;22.10;59.00;;;;;;4993802;28;20038;-67
2023/06/14 06:00:29;;;;;;;1.98;1.77;;;22.10;59.30;;;;;;5000945;28;20114;-68
2023/06/14 06:02:57;;;;;;;2.72;1.38;;;22.10;59.40;;;;;;4997786;28;20037;-67
2023/06/14 06:05:23;;;;;;;3.28;1.58;;;22.10;59.40;;;;;;4995207;28;20041;-67
2023/06/14 06:07:49;;;;;;;1.90;1.80;;;22.00;59.50;;;;;;5001675;28;20072;-67
2023/06/14 06:10:14;;;;;;;2.08;1.83;;;22.00;59.40;;;;;;5000833;28;20511;-70
2023/06/14 06:12:42;;;;;;;2.17;1.90;;;22.10;60.10;;;;;;5001320;28;20037;-66
2023/06/14 06:15:11;;;;;;;2.45;2.00;;;22.10;60.20;;;;;;4999479;28;20113;-65
2023/06/14 06:17:37;;;;;;;3.92;2.17;;;22.00;59.60;;;;;;4995793;28;20089;-67
2023/06/14 06:20:05;;;;;;;3.47;1.60;;;22.00;59.60;;;;;;5002088;28;20064;-71
2023/06/14 06:22:30;;;;;;;2.45;1.75;;;22.00;59.70;;;;;;4997372;28;20049;-67
2023/06/14 06:24:56;;;;;;;2.60;1.70;;;22.00;59.60;;;;;;4996133;28;20658;-67
2023/06/14 06:27:21;;;;;;;1.75;1.63;;;22.00;59.70;;;;;;4996791;28;20516;-67
2023/06/14 06:29:48;;;;;;;2.45;2.10;;;22.00;59.50;;;;;;4993807;28;20038;-67
2023/06/14 06:32:14;;;;;;;4.95;2.20;;;22.00;59.50;;;;;;4995616;28;20073;-68
2023/06/14 06:34:40;;;;;;;2.00;1.67;;;22.00;59.40;;;;;;4992963;28;20030;-67
2023/06/14 06:37:06;;;;;;;4.10;2.05;;;22.00;59.50;;;;;;4997495;28;20076;-67
2023/06/14 06:39:31;;;;;;;3.42;2.33;;;22.00;59.50;;;;;;5002246;28;20034;-67
2023/06/14 06:41:57;;;;;;;2.67;2.20;;;22.00;59.50;;;;;;5000966;28;20117;-67
2023/06/14 06:44:22;;;;;;;5.30;2.45;;;22.00;59.40;;;;;;5002139;28;20559;-67
2023/06/14 06:46:48;;;;;;;5.90;2.38;;;21.90;59.20;;;;;;5000164;28;20109;-68
2023/06/14 06:49:14;;;;;;;5.00;2.08;;;22.00;59.30;;;;;;5002227;28;20034;-68
2023/06/14 06:51:43;;;;;;;5.05;2.30;;;22.00;59.20;;;;;;4997801;28;20444;-68
2023/06/14 06:54:08;;;;;;;4.15;2.25;;;22.00;59.10;;;;;;4996187;28;20030;-67
2023/06/14 06:56:35;;;;;;;2.45;2.00;;;22.00;59.10;;;;;;4995245;28;20077;-66
2023/06/14 06:59:01;;;;;;;2.75;2.25;;;22.00;59.10;;;;;;5002019;28;20026;-67
2023/06/14 07:01:28;;;;;;;5.50;2.78;;;21.90;59.00;;;;;;4996985;28;20116;-68
2023/06/14 07:03:57;;;;;;;3.70;2.53;;;21.90;59.00;;;;;;4994575;28;20054;-66
2023/06/14 07:06:22;;;;;;;2.75;2.38;;;21.90;59.10;;;;;;4998144;28;20034;-67
2023/06/14 07:08:48;;;;;;;3.20;1.95;;;21.90;59.00;;;;;;5001777;28;20085;-67
2023/06/14 07:11:14;;;;;;;3.15;2.10;;;21.90;59.00;;;;;;4998943;28;20031;-66
2023/06/14 07:13:40;;;;;;;3.17;2.08;;;21.90;58.90;;;;;;5000602;28;20041;-67
2023/06/14 07:16:05;;;;;;;3.03;2.50;;;21.90;58.90;;;;;;4997336;28;20202;-65
2023/06/14 07:18:31;;;;;;;4.70;2.30;;;21.90;59.00;;;;;;5002549;28;20038;-68
2023/06/14 07:20:57;;;;;;;3.45;2.13;;;21.90;58.80;;;;;;4998774;28;20102;-67
2023/06/14 07:23:23;;;;;;;4.43;2.35;;;21.90;58.80;;;;;;4996824;28;20053;-67
2023/06/14 07:25:48;;;;;;;3.10;2.58;;;21.90;58.70;;;;;;4992761;28;20461;-67
2023/06/14 07:28:14;;;;;;;3.58;2.67;;;21.90;58.50;;;;;;4995526;28;20069;-67
2023/06/14 07:30:39;;;;;;;3.03;2.30;;;21.90;58.50;;;;;;4993572;28;20400;-65
2023/06/14 07:33:05;;;;;;;3.75;2.13;;;21.90;58.30;;;;;;4996713;28;20029;-67
2023/06/14 07:35:31;;;;;;;3.30;2.65;;;21.90;58.10;;;;;;4996231;28;20061;-67
2023/06/14 07:37:56;;;;;;;3.03;2.33;;;21.90;58.10;;;;;;5003618;28;20036;-68
2023/06/14 07:40:22;;;;;;;3.22;2.42;;;21.80;57.90;;;;;;5000224;28;20053;-68
2023/06/14 07:42:49;;;;;;;2.72;1.98;;;21.90;58.30;;;;;;4998845;28;20382;-67
2023/06/14 07:45:15;;;;;;;4.38;2.22;;;21.90;58.70;;;;;;5001455;28;20034;-66
2023/06/14 07:47:40;;;;;;;4.35;2.15;;;21.80;58.30;;;;;;5000210;28;20145;-68
2023/06/14 07:50:06;;;;;;;3.50;2.70;;;21.80;58.40;;;;;;4998348;28;20459;-67
2023/06/14 07:52:32;;;;;;;4.03;2.60;;;21.80;58.10;;;;;;4998696;28;20092;-68
2023/06/14 07:54:58;;;;;;;5.40;2.60;;;21.80;58.20;;;;;;4994469;28;20589;-67
2023/06/14 07:57:23;;;;;;;7.40;2.70;;;21.70;59.10;;;;;;4993759;28;20026;-67
2023/06/14 07:59:49;;;;;;;6.45;3.20;;;21.80;58.30;;;;;;4993035;28;20438;-64
2023/06/14 08:02:15;;;;;;;5.55;2.72;;;21.80;58.60;;;;;;4993717;28;20084;-67
2023/06/14 08:04:41;;;;;;;5.28;3.08;;;21.80;57.70;;;;;;4990107;28;20681;-66
2023/06/14 08:07:06;;;;;;;3.58;2.63;;;21.80;57.30;;;;;;4999521;28;20022;-66
2023/06/14 08:09:32;;;;;;;3.05;2.42;;;21.80;57.40;;;;;;5000818;28;20133;-67
2023/06/14 08:11:57;;;;;;;3.15;2.85;;;21.80;57.00;;;;;;4998476;28;20109;-67
2023/06/14 08:14:23;;;;;;;5.15;2.30;;;21.80;56.90;;;;;;5001242;28;20026;-68
2023/06/14 08:16:48;;;;;;;4.25;2.88;;;21.80;57.00;;;;;;4996003;28;20133;-67
2023/06/14 08:19:16;;;;;;;7.80;2.70;;;21.80;57.10;;;;;;4997033;28;20187;-68
2023/06/14 08:21:43;;;;;;;3.65;2.88;;;21.80;57.30;;;;;;4995159;28;20152;-66
2023/06/14 08:24:12;;;;;;;4.63;2.40;;;21.80;57.00;;;;;;4994583;28;20027;-64
2023/06/14 08:26:39;;;;;;;2.58;2.17;;;21.80;57.00;;;;;;4995682;28;20133;-67
2023/06/14 08:29:05;;;;;;;5.82;2.58;;;21.80;57.10;;;;;;4993070;28;20250;-67
2023/06/14 08:31:32;;;;;;;3.40;2.35;;;21.80;57.10;;;;;;4989863;28;20038;-67
2023/06/14 08:33:57;;;;;;;4.30;2.50;;;21.80;57.20;;;;;;4997442;28;20076;-61
2023/06/14 08:36:23;;;;;;;6.90;3.38;;;21.80;57.20;;;;;;4999827;28;20533;-61
2023/06/14 08:38:48;;;;;;;4.32;2.85;;;21.80;57.30;;;;;;4999878;28;20033;-60
2023/06/14 08:41:21;;;;;;;4.65;2.63;;;21.80;57.40;;;;;;4999951;28;20926;-68
2023/06/14 08:43:47;;;;;;;4.20;3.08;;;21.80;57.30;;;;;;4999369;28;20084;-67
2023/06/14 08:46:16;;;;;;;3.30;2.60;;;21.80;57.30;;;;;;4998013;28;20034;-68
2023/06/14 08:48:43;;;;;;;3.05;2.70;;;21.80;57.50;;;;;;4996533;28;20416;-67
2023/06/14 08:51:10;;;;;;;4.03;2.40;;;21.80;57.60;;;;;;4994534;28;20031;-68
2023/06/14 08:53:41;;;;;;;3.08;2.60;;;21.80;57.60;;;;;;4988973;28;20136;-67
2023/06/14 08:56:13;;;;;;;4.00;2.58;;;21.80;57.60;;;;;;4994795;28;20034;-64
2023/06/14 08:58:44;;;;;;;3.75;2.88;;;21.70;57.60;;;;;;4995563;28;20077;-61
2023/06/14 09:01:14;;;;;;;3.42;2.70;;;21.70;57.40;;;;;;4991941;28;20469;-64
2023/06/14 09:03:40;;;;;;;4.63;2.50;;;21.70;57.60;;;;;;4992544;28;20568;-66
2023/06/14 09:06:08;;;;;;;3.13;2.53;;;21.80;57.60;;;;;;4999007;28;20408;-67
2023/06/14 09:08:35;;;;;;;3.20;2.58;;;21.70;57.60;;;;;;5001085;28;20038;-67
2023/06/14 09:11:01;;;;;;;3.00;2.50;;;21.70;57.70;;;;;;4999516;28;20048;-66
2023/06/14 09:13:27;;;;;;;3.67;2.65;;;21.70;57.60;;;;;;4998707;28;20034;-68
2023/06/14 09:15:54;;;;;;;3.28;2.60;;;21.70;57.50;;;;;;4996967;28;20109;-62
2023/06/14 09:18:20;;;;;;;4.03;2.25;;;21.70;57.70;;;;;;4995278;28;20039;-67
2023/06/14 09:20:47;;;;;;;4.55;3.05;;;21.70;57.60;;;;;;4994569;28;20429;-66
2023/06/14 09:23:13;;;;;;;3.03;2.72;;;21.70;57.60;;;;;;4992087;28;20034;-66
2023/06/14 09:25:43;;;;;;;4.28;2.55;;;21.70;57.70;;;;;;4991279;28;20056;-65
2023/06/14 09:28:10;;;;;;;2.40;2.20;;;21.70;57.70;;;;;;4995451;28;20044;-67
2023/06/14 09:30:39;;;;;;;4.13;2.45;;;21.70;57.80;;;;;;4993426;28;20033;-67
2023/06/14 09:33:04;;;;;;;4.20;2.60;;;21.70;57.60;;;;;;4997548;28;20096;-65
2023/06/14 09:35:32;;;;;;;3.63;2.88;;;21.70;57.60;;;;;;4998569;28;20444;-62
2023/06/14 09:37:57;;;;;;;3.60;2.65;;;21.70;57.70;;;;;;4998154;28;20060;-67
2023/06/14 09:40:24;;;;;;;4.65;2.90;;;21.70;57.70;;;;;;4998760;28;20058;-67
2023/06/14 09:42:49;;;;;;;3.65;2.75;;;21.70;57.70;;;;;;4997933;28;20037;-66
2023/06/14 09:45:21;;;;;;;2.60;2.40;;;21.70;57.70;;;;;;4996750;28;20452;-67
2023/06/14 09:47:51;;;;;;;2.90;2.60;;;21.70;57.70;;;;;;4993945;28;20092;-66
2023/06/14 09:50:16;;;;;;;2.75;2.55;;;21.70;57.70;;;;;;4993768;28;20030;-66
2023/06/14 09:52:46;;;;;;;4.20;2.40;;;21.70;57.80;;;;;;4991076;28;20048;-67
2023/06/14 09:55:15;;;;;;;2.42;2.22;;;21.70;57.70;;;;;;4990686;28;20038;-67
2023/06/14 09:57:42;;;;;;;2.83;2.50;;;21.70;57.70;;;;;;4999030;28;20054;-66
2023/06/14 10:00:12;;;;;;;2.92;2.47;;;21.70;57.70;;;;;;4989354;28;20027;-62
2023/06/14 10:02:39;;;;;;;3.42;2.85;;;21.70;57.70;;;;;;4994674;28;20496;-62
2023/06/14 10:05:07;;;;;;;3.50;2.60;;;21.70;57.60;;;;;;4999033;28;20523;-66
2023/06/14 10:07:37;;;;;;;3.05;2.72;;;21.70;57.70;;;;;;4988839;28;20033;-65
2023/06/14 10:10:04;;;;;;;3.50;2.97;;;21.70;57.80;;;;;;4999143;28;20041;-66
2023/06/14 10:12:30;;;;;;;3.45;3.05;;;21.60;57.70;;;;;;4998234;28;20038;-66
2023/06/14 10:14:57;;;;;;;2.80;2.42;;;21.70;57.80;;;;;;4996337;28;20030;-66
2023/06/14 10:17:35;;;;;;;3.60;2.88;;;21.70;57.70;;;;;;4995080;28;20026;-63
2023/06/14 10:20:32;;;;;;;4.43;2.65;;;21.70;57.70;;;;;;4994949;28;20426;-66
2023/06/14 10:23:05;;;;;;;3.40;2.65;;;21.70;57.60;;;;;;4990541;28;20069;-62
2023/06/14 10:25:31;;;;;;;3.15;2.67;;;21.70;57.70;;;;;;5002847;28;20038;-62
2023/06/14 10:28:12;;;;;;;3.00;2.70;;;21.70;57.50;;;;;;5005530;28;20043;-62
2023/06/14 10:30:37;;;;;;;4.35;2.75;;;21.70;57.80;;;;;;4984499;28;20030;-65
2023/06/14 10:33:07;;;;;;;5.13;3.00;;;21.70;57.60;;;;;;5001737;28;20523;-66
2023/06/14 10:35:34;;;;;;;3.63;2.97;;;21.70;57.80;;;;;;5002233;28;20508;-66
2023/06/14 10:38:12;;;;;;;5.95;3.05;;;21.70;57.70;;;;;;5002344;28;20107;-67
2023/06/14 10:40:39;;;;;;;4.35;3.15;;;21.70;58.00;;;;;;5000936;28;20041;-66
2023/06/14 10:43:23;;;;;;;5.57;2.63;;;21.70;57.80;;;;;;4999678;28;20030;-67
2023/06/14 10:46:17;;;;;;;4.35;2.90;;;21.70;58.00;;;;;;4998233;28;20045;-66
2023/06/14 10:48:44;;;;;;;3.65;3.00;;;21.70;57.90;;;;;;4995924;28;20088;-67
2023/06/14 10:51:20;;;;;;;4.63;3.17;;;21.70;57.80;;;;;;4990359;28;20058;-67
2023/06/14 10:53:48;;;;;;;4.03;3.03;;;21.60;57.90;;;;;;4994237;28;20462;-62
2023/06/14 10:56:26;;;;;;;3.88;3.15;;;21.70;58.00;;;;;;4994804;28;20081;-65
2023/06/14 10:58:51;;;;;;;3.78;3.00;;;21.70;57.90;;;;;;4993139;28;20049;-62
2023/06/14 11:01:31;;;;;;;5.60;3.13;;;21.70;58.10;;;;;;5000454;28;20038;-65
2023/06/14 11:04:06;;;;;;;5.45;2.90;;;21.70;58.10;;;;;;5000190;28;20034;-62
2023/06/14 11:06:52;;;;;;;5.17;2.80;;;21.70;58.00;;;;;;5000942;28;20049;-68
2023/06/14 11:09:36;;;;;;;4.63;2.70;;;21.70;58.20;;;;;;4999210;28;20430;-66
2023/06/14 11:12:02;;;;;;;3.45;2.95;;;21.70;57.90;;;;;;4998631;28;20085;-66
2023/06/14 11:14:30;;;;;;;4.85;2.88;;;21.70;58.00;;;;;;4993317;28;20046;-66
2023/06/14 11:16:56;;;;;;;4.13;3.35;;;21.70;58.10;;;;;;4996617;28;20041;-66
2023/06/14 11:19:21;;;;;;;3.75;2.60;;;21.60;57.90;;;;;;4995057;28;20397;-67
2023/06/14 11:21:48;;;;;;;5.82;3.03;;;21.70;58.00;;;;;;4999097;28;20038;-66
2023/06/14 11:24:14;;;;;;;6.38;3.25;;;21.70;58.00;;;;;;4993196;28;20057;-68
2023/06/14 11:26:40;;;;;;;2.95;2.63;;;21.70;58.00;;;;;;4993124;28;20066;-65
2023/06/14 11:29:06;;;;;;;3.80;2.90;;;21.60;57.90;;;;;;4993133;28;20045;-67
2023/06/14 11:31:31;;;;;;;4.15;3.20;;;21.60;58.00;;;;;;4997938;28;20431;-66
2023/06/14 11:33:59;;;;;;;3.90;2.97;;;21.70;58.10;;;;;;4998976;28;20073;-67
2023/06/14 11:36:32;;;;;;;4.75;3.10;;;21.60;58.00;;;;;;5001175;28;20088;-69
2023/06/14 11:38:59;;;;;;;4.28;2.72;;;21.60;58.20;;;;;;4998102;28;20138;-63
2023/06/14 11:41:25;;;;;;;3.20;2.90;;;21.70;58.20;;;;;;4998362;28;20521;-67
2023/06/14 11:43:53;;;;;;;4.25;2.75;;;21.70;58.20;;;;;;4993835;28;20034;-68
2023/06/14 11:46:23;;;;;;;5.30;2.88;;;21.60;58.10;;;;;;4998311;28;20030;-66
2023/06/14 11:48:49;;;;;;;3.50;2.95;;;21.60;58.10;;;;;;4992391;28;20033;-67
2023/06/14 11:51:14;;;;;;;4.43;3.10;;;21.60;58.30;;;;;;4989700;28;20022;-66
2023/06/14 11:53:42;;;;;;;5.80;3.13;;;21.60;58.20;;;;;;4994727;28;20042;-67
2023/06/14 11:56:07;;;;;;;3.83;2.65;;;21.60;58.10;;;;;;4996371;28;20445;-66
2023/06/14 11:58:33;;;;;;;5.45;3.53;;;21.60;58.00;;;;;;4993057;28;20030;-68
2023/06/14 12:00:59;;;;;;;4.40;2.83;;;21.60;58.00;;;;;;5001216;28;20030;-66
2023/06/14 12:03:25;;;;;;;4.78;3.33;;;21.60;58.00;;;;;;5000839;28;20188;-66
2023/06/14 12:06:02;;;;;;;3.53;3.20;;;21.60;57.90;;;;;;4999656;28;20060;-66
2023/06/14 12:08:38;;;;;;;4.63;3.38;;;21.60;58.00;;;;;;4996764;28;20120;-65
2023/06/14 12:11:04;;;;;;;3.13;2.72;;;21.70;58.70;;;;;;4997022;28;20038;-66
2023/06/14 12:13:30;;;;;;;3.65;2.85;;;21.60;58.10;;;;;;4993178;28;20416;-67
2023/06/14 12:15:58;;;;;;;3.03;2.72;;;21.70;58.20;;;;;;4994681;28;20519;-66
2023/06/14 12:18:34;;;;;;;3.83;2.88;;;21.60;58.00;;;;;;4990266;28;20030;-66
2023/06/14 12:21:02;;;;;;;3.50;3.15;;;21.70;58.10;;;;;;4997857;28;20434;-66
2023/06/14 12:23:45;;;;;;;3.00;2.67;;;21.60;58.00;;;;;;4993449;28;20053;-65
2023/06/14 12:26:19;;;;;;;3.60;2.80;;;21.70;58.20;;;;;;4994501;28;20509;-65
2023/06/14 12:28:45;;;;;;;3.42;2.78;;;21.60;58.00;;;;;;4996520;28;20046;-65
2023/06/14 12:31:12;;;;;;;4.38;2.80;;;21.70;58.10;;;;;;4999750;28;20037;-66
2023/06/14 12:33:38;;;;;;;2.72;2.40;;;21.70;58.20;;;;;;4999530;28;20038;-65
2023/06/14 12:36:05;;;;;;;4.03;2.92;;;21.70;58.20;;;;;;4998418;28;20034;-66
2023/06/14 12:38:32;;;;;;;3.30;2.65;;;21.70;58.20;;;;;;4995391;28;20540;-65
2023/06/14 12:40:57;;;;;;;3.25;2.63;;;21.70;58.20;;;;;;4995273;28;20449;-65
2023/06/14 12:43:23;;;;;;;3.10;2.80;;;21.70;58.20;;;;;;4994382;28;20026;-63
2023/06/14 12:45:48;;;;;;;3.17;2.70;;;21.60;58.20;;;;;;4994329;28;20478;-67
2023/06/14 12:48:15;;;;;;;3.33;2.75;;;21.60;58.20;;;;;;4989934;28;20280;-66